• Join FlightAware (Why Join?)
  • Login
  • US Flag 
09:08AM EDT


 

Airport Tracker/Info


-or-


 

Live Flight TrackerFlight Track Log ✈ N864AS ✈ 19-Apr-2012 ✈ KSAN - KLAX

Flight Track Log - Related Links

Times and Time Zones

All times are in EDT time to prevent confusion due to time zone crossing. See the N864AS flight status page for this flight to view local times or setup timezone preferences in your user account.

Time Position Orientation Groundspeed Altitude Reporting Facility
EDT Latitude Longitude Course Direction KTS MPH feet Rate Location/Type
07:44PM 32.7500 -117.2333 306° West 190 219 1,700  Level Southern California TRACON
07:45PM 32.8000 -117.3167 301° West 273 314 4,100 2,400 Climbing Southern California TRACON
07:46PM 32.8333 -117.3833 306° West 292 336 6,600 2,520 Climbing Southern California TRACON
07:47PM 32.8833 -117.4667 314° West 295 339 9,200 1,680 Climbing Southern California TRACON
07:48PM 32.9500 -117.5500 314° West 343 395 10,000 360 Climbing Southern California TRACON
07:49PM 33.0167 -117.6333 326° Northwest 378 435 10,000  Level Southern California TRACON
07:50PM 33.1000 -117.7000 337° Northwest 375 432 10,000  Level Southern California TRACON
07:51PM 33.2000 -117.7500 337° Northwest 375 432 10,000  Level Southern California TRACON
07:52PM 33.3000 -117.8000 333° Northwest 373 429 10,000 -60 Level Southern California TRACON
07:53PM 33.3833 -117.8500 337° Northwest 313 360 9,900 -900 Descending Southern California TRACON
07:54PM 33.4500 -117.8833 342° North 276 318 8,200 -960 Descending Southern California TRACON
07:55PM 33.5333 -117.9167 328° Northwest 279 321 8,000 -120 Descending Southern California TRACON
07:56PM 33.6000 -117.9667 337° Northwest 291 335 8,000  Level Southern California TRACON
07:57PM 33.6667 -118.0000 342° North 285 328 8,000 -540 Level Southern California TRACON
07:58PM 33.7500 -118.0333 348° North 265 305 7,000 -600 Descending Southern California TRACON
07:59PM 33.8167 -118.0500 348° North 273 314 6,900 -900 Descending Southern California TRACON
07:59PM 33.8833 -118.0667 312° West 268 308 5,300 -1,800 Descending Southern California TRACON
08:00PM 33.9333 -118.1333 284° West 271 312 3,500 -1,440 Descending Southern California TRACON
08:02PM 33.9500 -118.2167 270° West 241 277 2,400 -900 Descending Southern California TRACON
08:02PM 33.9500 -118.2833 270° West 197 227 1,700 -840 Descending Southern California TRACON
08:03PM 33.9500 -118.3333 270° West 142 163 900 -840 Descending Southern California TRACON